sensor_id;sensor_type;location;lat;lon;timestamp;P1;durP1;ratioP1;P2;durP2;ratioP2
27796;SDS011;15177;50.844;4.412;2023-03-04T00:01:25;18.07;;;9.03;;
27796;SDS011;15177;50.844;4.412;2023-03-04T00:03:50;16.10;;;7.80;;
27796;SDS011;15177;50.844;4.412;2023-03-04T00:06:16;19.10;;;8.23;;
27796;SDS011;15177;50.844;4.412;2023-03-04T00:08:42;23.77;;;9.37;;
27796;SDS011;15177;50.844;4.412;2023-03-04T00:11:07;33.17;;;10.20;;
27796;SDS011;15177;50.844;4.412;2023-03-04T00:13:33;18.50;;;9.10;;
27796;SDS011;15177;50.844;4.412;2023-03-04T00:16:00;24.27;;;9.07;;
27796;SDS011;15177;50.844;4.412;2023-03-04T00:18:25;21.70;;;8.70;;
27796;SDS011;15177;50.844;4.412;2023-03-04T00:20:52;24.33;;;9.50;;
27796;SDS011;15177;50.844;4.412;2023-03-04T00:23:18;16.37;;;8.37;;
27796;SDS011;15177;50.844;4.412;2023-03-04T00:25:43;23.73;;;9.57;;
27796;SDS011;15177;50.844;4.412;2023-03-04T00:28:10;25.07;;;9.10;;
27796;SDS011;15177;50.844;4.412;2023-03-04T00:30:36;22.90;;;10.73;;
27796;SDS011;15177;50.844;4.412;2023-03-04T00:33:01;24.50;;;11.03;;
27796;SDS011;15177;50.844;4.412;2023-03-04T00:35:27;25.43;;;10.40;;
27796;SDS011;15177;50.844;4.412;2023-03-04T00:37:53;28.03;;;12.03;;
27796;SDS011;15177;50.844;4.412;2023-03-04T00:40:18;27.70;;;12.20;;
27796;SDS011;15177;50.844;4.412;2023-03-04T00:42:44;28.83;;;11.73;;
27796;SDS011;15177;50.844;4.412;2023-03-04T00:45:10;22.13;;;11.67;;
27796;SDS011;15177;50.844;4.412;2023-03-04T00:47:35;25.10;;;11.27;;
27796;SDS011;15177;50.844;4.412;2023-03-04T00:50:01;23.10;;;11.27;;
27796;SDS011;15177;50.844;4.412;2023-03-04T00:52:28;27.30;;;11.30;;
27796;SDS011;15177;50.844;4.412;2023-03-04T00:54:53;28.47;;;10.97;;
27796;SDS011;15177;50.844;4.412;2023-03-04T00:57:19;28.57;;;10.10;;
27796;SDS011;15177;50.844;4.412;2023-03-04T00:59:44;31.23;;;10.60;;
27796;SDS011;15177;50.844;4.412;2023-03-04T01:02:10;26.67;;;11.17;;
27796;SDS011;15177;50.844;4.412;2023-03-04T01:04:36;22.47;;;10.57;;
27796;SDS011;15177;50.844;4.412;2023-03-04T01:07:02;27.70;;;10.83;;
27796;SDS011;15177;50.844;4.412;2023-03-04T01:09:29;19.83;;;10.83;;
27796;SDS011;15177;50.844;4.412;2023-03-04T01:11:55;27.63;;;9.97;;
27796;SDS011;15177;50.844;4.412;2023-03-04T01:14:20;21.87;;;10.77;;
27796;SDS011;15177;50.844;4.412;2023-03-04T01:16:46;20.80;;;10.30;;
27796;SDS011;15177;50.844;4.412;2023-03-04T01:19:12;24.47;;;9.60;;
27796;SDS011;15177;50.844;4.412;2023-03-04T01:21:38;26.33;;;9.10;;
27796;SDS011;15177;50.844;4.412;2023-03-04T01:24:04;18.50;;;7.90;;
27796;SDS011;15177;50.844;4.412;2023-03-04T01:26:30;22.73;;;9.27;;
27796;SDS011;15177;50.844;4.412;2023-03-04T01:28:55;25.50;;;9.90;;
27796;SDS011;15177;50.844;4.412;2023-03-04T01:31:21;20.30;;;9.13;;
27796;SDS011;15177;50.844;4.412;2023-03-04T01:33:46;31.77;;;9.47;;
27796;SDS011;15177;50.844;4.412;2023-03-04T01:36:12;25.27;;;7.83;;
27796;SDS011;15177;50.844;4.412;2023-03-04T01:38:38;22.87;;;8.43;;
27796;SDS011;15177;50.844;4.412;2023-03-04T01:41:03;26.43;;;8.37;;
27796;SDS011;15177;50.844;4.412;2023-03-04T01:43:30;19.60;;;8.13;;
27796;SDS011;15177;50.844;4.412;2023-03-04T01:45:56;22.37;;;8.47;;
27796;SDS011;15177;50.844;4.412;2023-03-04T01:48:27;31.23;;;9.40;;
27796;SDS011;15177;50.844;4.412;2023-03-04T01:51:01;18.47;;;8.80;;
27796;SDS011;15177;50.844;4.412;2023-03-04T01:53:28;25.37;;;8.60;;
27796;SDS011;15177;50.844;4.412;2023-03-04T01:55:55;19.90;;;8.10;;
27796;SDS011;15177;50.844;4.412;2023-03-04T01:58:27;26.93;;;8.93;;
27796;SDS011;15177;50.844;4.412;2023-03-04T02:00:54;22.90;;;8.60;;
27796;SDS011;15177;50.844;4.412;2023-03-04T02:03:21;27.57;;;9.73;;
27796;SDS011;15177;50.844;4.412;2023-03-04T02:05:50;27.77;;;10.43;;
27796;SDS011;15177;50.844;4.412;2023-03-04T02:08:18;27.07;;;10.37;;
27796;SDS011;15177;50.844;4.412;2023-03-04T02:10:46;26.93;;;8.70;;
27796;SDS011;15177;50.844;4.412;2023-03-04T02:13:13;23.43;;;8.93;;
27796;SDS011;15177;50.844;4.412;2023-03-04T02:15:39;25.23;;;8.87;;
27796;SDS011;15177;50.844;4.412;2023-03-04T02:18:11;29.83;;;8.60;;
27796;SDS011;15177;50.844;4.412;2023-03-04T02:26:12;26.67;;;8.90;;
27796;SDS011;15177;50.844;4.412;2023-03-04T02:28:41;19.27;;;9.70;;
27796;SDS011;15177;50.844;4.412;2023-03-04T02:31:11;34.07;;;8.63;;
27796;SDS011;15177;50.844;4.412;2023-03-04T02:34:18;19.63;;;7.67;;
27796;SDS011;15177;50.844;4.412;2023-03-04T02:36:55;25.83;;;8.43;;
27796;SDS011;15177;50.844;4.412;2023-03-04T02:39:27;27.00;;;8.67;;
27796;SDS011;15177;50.844;4.412;2023-03-04T02:42:01;21.20;;;8.23;;
27796;SDS011;15177;50.844;4.412;2023-03-04T02:44:28;25.20;;;8.73;;
27796;SDS011;15177;50.844;4.412;2023-03-04T02:46:56;26.30;;;8.90;;
27796;SDS011;15177;50.844;4.412;2023-03-04T02:49:23;27.27;;;7.97;;
27796;SDS011;15177;50.844;4.412;2023-03-04T02:54:41;23.80;;;8.43;;
27796;SDS011;15177;50.844;4.412;2023-03-04T02:57:09;22.80;;;8.30;;
27796;SDS011;15177;50.844;4.412;2023-03-04T02:59:36;25.67;;;8.17;;
27796;SDS011;15177;50.844;4.412;2023-03-04T03:02:03;27.10;;;7.97;;
27796;SDS011;15177;50.844;4.412;2023-03-04T03:04:30;32.37;;;8.20;;
27796;SDS011;15177;50.844;4.412;2023-03-04T03:06:56;23.63;;;8.07;;
27796;SDS011;15177;50.844;4.412;2023-03-04T03:09:22;28.00;;;8.20;;
27796;SDS011;15177;50.844;4.412;2023-03-04T03:11:48;24.23;;;9.07;;
27796;SDS011;15177;50.844;4.412;2023-03-04T03:14:13;27.93;;;9.10;;
27796;SDS011;15177;50.844;4.412;2023-03-04T03:16:39;29.37;;;9.10;;
27796;SDS011;15177;50.844;4.412;2023-03-04T03:19:05;21.80;;;8.80;;
27796;SDS011;15177;50.844;4.412;2023-03-04T03:21:30;28.27;;;8.33;;
27796;SDS011;15177;50.844;4.412;2023-03-04T03:23:56;25.47;;;8.23;;
27796;SDS011;15177;50.844;4.412;2023-03-04T03:26:21;17.70;;;7.23;;
27796;SDS011;15177;50.844;4.412;2023-03-04T03:28:47;19.27;;;8.07;;
27796;SDS011;15177;50.844;4.412;2023-03-04T03:31:13;20.40;;;7.23;;
27796;SDS011;15177;50.844;4.412;2023-03-04T03:33:39;24.73;;;8.13;;
27796;SDS011;15177;50.844;4.412;2023-03-04T03:36:04;16.23;;;7.33;;
27796;SDS011;15177;50.844;4.412;2023-03-04T03:38:30;22.13;;;7.37;;
27796;SDS011;15177;50.844;4.412;2023-03-04T03:40:56;34.23;;;9.40;;
27796;SDS011;15177;50.844;4.412;2023-03-04T03:43:22;25.60;;;8.27;;
27796;SDS011;15177;50.844;4.412;2023-03-04T03:45:47;22.10;;;8.53;;
27796;SDS011;15177;50.844;4.412;2023-03-04T03:48:14;20.47;;;8.07;;
27796;SDS011;15177;50.844;4.412;2023-03-04T03:50:40;21.33;;;8.27;;
27796;SDS011;15177;50.844;4.412;2023-03-04T03:53:05;24.20;;;8.97;;
27796;SDS011;15177;50.844;4.412;2023-03-04T03:55:31;24.93;;;8.83;;
27796;SDS011;15177;50.844;4.412;2023-03-04T03:57:56;24.63;;;10.40;;
27796;SDS011;15177;50.844;4.412;2023-03-04T04:00:22;29.30;;;9.70;;
27796;SDS011;15177;50.844;4.412;2023-03-04T04:02:48;25.40;;;8.40;;
27796;SDS011;15177;50.844;4.412;2023-03-04T04:05:13;18.60;;;8.47;;
27796;SDS011;15177;50.844;4.412;2023-03-04T04:07:39;17.90;;;7.90;;
27796;SDS011;15177;50.844;4.412;2023-03-04T04:10:06;24.80;;;8.93;;
27796;SDS011;15177;50.844;4.412;2023-03-04T04:12:34;22.03;;;9.50;;
27796;SDS011;15177;50.844;4.412;2023-03-04T04:14:59;19.43;;;8.97;;
27796;SDS011;15177;50.844;4.412;2023-03-04T04:17:25;24.00;;;10.13;;
27796;SDS011;15177;50.844;4.412;2023-03-04T04:19:51;24.03;;;10.33;;
27796;SDS011;15177;50.844;4.412;2023-03-04T04:22:17;23.67;;;10.00;;
27796;SDS011;15177;50.844;4.412;2023-03-04T04:24:44;26.37;;;8.80;;
27796;SDS011;15177;50.844;4.412;2023-03-04T04:27:11;25.37;;;8.60;;
27796;SDS011;15177;50.844;4.412;2023-03-04T04:29:37;27.77;;;9.90;;
27796;SDS011;15177;50.844;4.412;2023-03-04T04:32:03;35.37;;;10.17;;
27796;SDS011;15177;50.844;4.412;2023-03-04T04:34:29;33.37;;;10.13;;
27796;SDS011;15177;50.844;4.412;2023-03-04T04:36:56;25.17;;;9.77;;
27796;SDS011;15177;50.844;4.412;2023-03-04T04:39:22;24.67;;;10.33;;
27796;SDS011;15177;50.844;4.412;2023-03-04T04:41:49;24.93;;;10.60;;
27796;SDS011;15177;50.844;4.412;2023-03-04T04:44:15;33.13;;;10.13;;
27796;SDS011;15177;50.844;4.412;2023-03-04T04:46:41;24.60;;;9.80;;
27796;SDS011;15177;50.844;4.412;2023-03-04T04:49:07;23.13;;;10.23;;
27796;SDS011;15177;50.844;4.412;2023-03-04T04:51:33;28.97;;;10.10;;
27796;SDS011;15177;50.844;4.412;2023-03-04T04:54:00;33.23;;;10.30;;
27796;SDS011;15177;50.844;4.412;2023-03-04T04:56:26;29.90;;;10.47;;
27796;SDS011;15177;50.844;4.412;2023-03-04T04:58:53;28.23;;;9.47;;
27796;SDS011;15177;50.844;4.412;2023-03-04T05:01:21;34.67;;;10.87;;
27796;SDS011;15177;50.844;4.412;2023-03-04T05:03:47;25.20;;;11.10;;
27796;SDS011;15177;50.844;4.412;2023-03-04T05:06:14;23.47;;;10.80;;
27796;SDS011;15177;50.844;4.412;2023-03-04T05:08:40;23.93;;;11.30;;
27796;SDS011;15177;50.844;4.412;2023-03-04T05:11:06;27.47;;;11.13;;
27796;SDS011;15177;50.844;4.412;2023-03-04T05:13:33;25.47;;;10.37;;
27796;SDS011;15177;50.844;4.412;2023-03-04T05:15:59;24.07;;;9.80;;
27796;SDS011;15177;50.844;4.412;2023-03-04T05:18:25;22.03;;;10.03;;
27796;SDS011;15177;50.844;4.412;2023-03-04T05:20:51;17.37;;;9.43;;
27796;SDS011;15177;50.844;4.412;2023-03-04T05:23:19;27.00;;;11.20;;
27796;SDS011;15177;50.844;4.412;2023-03-04T05:25:44;29.40;;;11.17;;
27796;SDS011;15177;50.844;4.412;2023-03-04T05:28:10;29.87;;;11.03;;
27796;SDS011;15177;50.844;4.412;2023-03-04T05:30:37;31.43;;;11.73;;
27796;SDS011;15177;50.844;4.412;2023-03-04T05:33:07;31.73;;;11.40;;
27796;SDS011;15177;50.844;4.412;2023-03-04T05:35:34;17.33;;;8.33;;
27796;SDS011;15177;50.844;4.412;2023-03-04T05:38:00;25.87;;;7.60;;
27796;SDS011;15177;50.844;4.412;2023-03-04T05:40:27;14.70;;;6.03;;
27796;SDS011;15177;50.844;4.412;2023-03-04T05:42:52;23.43;;;6.23;;
27796;SDS011;15177;50.844;4.412;2023-03-04T05:45:18;15.83;;;6.17;;
27796;SDS011;15177;50.844;4.412;2023-03-04T05:47:44;22.53;;;7.03;;
27796;SDS011;15177;50.844;4.412;2023-03-04T05:50:09;18.23;;;6.47;;
27796;SDS011;15177;50.844;4.412;2023-03-04T05:52:35;29.70;;;7.33;;
27796;SDS011;15177;50.844;4.412;2023-03-04T05:55:01;24.87;;;6.43;;
27796;SDS011;15177;50.844;4.412;2023-03-04T05:57:27;21.10;;;6.90;;
27796;SDS011;15177;50.844;4.412;2023-03-04T05:59:53;17.00;;;6.43;;
27796;SDS011;15177;50.844;4.412;2023-03-04T06:02:18;18.07;;;7.30;;
27796;SDS011;15177;50.844;4.412;2023-03-04T06:04:44;23.50;;;5.73;;
27796;SDS011;15177;50.844;4.412;2023-03-04T06:07:09;18.80;;;5.37;;
27796;SDS011;15177;50.844;4.412;2023-03-04T06:09:35;18.07;;;5.73;;
27796;SDS011;15177;50.844;4.412;2023-03-04T06:12:01;12.37;;;4.67;;
27796;SDS011;15177;50.844;4.412;2023-03-04T06:14:26;15.20;;;4.63;;
27796;SDS011;15177;50.844;4.412;2023-03-04T06:16:52;17.43;;;4.87;;
27796;SDS011;15177;50.844;4.412;2023-03-04T06:19:18;21.67;;;4.90;;
27796;SDS011;15177;50.844;4.412;2023-03-04T06:21:44;19.27;;;5.00;;
27796;SDS011;15177;50.844;4.412;2023-03-04T06:24:09;13.20;;;4.03;;
27796;SDS011;15177;50.844;4.412;2023-03-04T06:26:35;19.23;;;3.87;;
27796;SDS011;15177;50.844;4.412;2023-03-04T06:29:00;14.83;;;3.57;;
27796;SDS011;15177;50.844;4.412;2023-03-04T06:31:26;13.60;;;4.40;;
27796;SDS011;15177;50.844;4.412;2023-03-04T06:33:52;17.83;;;3.73;;
27796;SDS011;15177;50.844;4.412;2023-03-04T06:36:17;20.83;;;4.70;;
27796;SDS011;15177;50.844;4.412;2023-03-04T06:38:43;18.53;;;3.70;;
27796;SDS011;15177;50.844;4.412;2023-03-04T06:41:09;22.63;;;7.90;;
27796;SDS011;15177;50.844;4.412;2023-03-04T06:43:36;23.07;;;4.30;;
27796;SDS011;15177;50.844;4.412;2023-03-04T06:46:02;21.53;;;5.07;;
27796;SDS011;15177;50.844;4.412;2023-03-04T06:48:28;15.87;;;3.63;;
27796;SDS011;15177;50.844;4.412;2023-03-04T06:50:54;16.10;;;3.90;;
27796;SDS011;15177;50.844;4.412;2023-03-04T06:53:20;16.97;;;4.27;;
27796;SDS011;15177;50.844;4.412;2023-03-04T06:55:46;13.67;;;4.20;;
27796;SDS011;15177;50.844;4.412;2023-03-04T06:58:12;12.07;;;3.67;;
27796;SDS011;15177;50.844;4.412;2023-03-04T07:00:37;16.13;;;4.00;;
27796;SDS011;15177;50.844;4.412;2023-03-04T07:03:03;19.67;;;3.43;;
27796;SDS011;15177;50.844;4.412;2023-03-04T07:05:29;11.17;;;3.50;;
27796;SDS011;15177;50.844;4.412;2023-03-04T07:07:54;18.03;;;3.90;;
27796;SDS011;15177;50.844;4.412;2023-03-04T07:10:20;24.33;;;4.33;;
27796;SDS011;15177;50.844;4.412;2023-03-04T07:12:46;15.83;;;4.83;;
27796;SDS011;15177;50.844;4.412;2023-03-04T07:15:12;18.20;;;4.23;;
27796;SDS011;15177;50.844;4.412;2023-03-04T07:17:38;19.50;;;4.00;;
27796;SDS011;15177;50.844;4.412;2023-03-04T07:20:03;19.80;;;4.30;;
27796;SDS011;15177;50.844;4.412;2023-03-04T07:22:30;18.77;;;4.73;;
27796;SDS011;15177;50.844;4.412;2023-03-04T07:24:55;8.97;;;3.67;;
27796;SDS011;15177;50.844;4.412;2023-03-04T07:27:21;16.83;;;5.03;;
27796;SDS011;15177;50.844;4.412;2023-03-04T07:29:46;15.07;;;3.90;;
27796;SDS011;15177;50.844;4.412;2023-03-04T07:32:12;15.57;;;4.07;;
27796;SDS011;15177;50.844;4.412;2023-03-04T07:34:38;17.53;;;5.43;;
27796;SDS011;15177;50.844;4.412;2023-03-04T07:37:03;12.20;;;4.10;;
27796;SDS011;15177;50.844;4.412;2023-03-04T07:39:29;15.23;;;3.90;;
27796;SDS011;15177;50.844;4.412;2023-03-04T07:41:54;14.50;;;4.23;;
27796;SDS011;15177;50.844;4.412;2023-03-04T07:44:20;18.23;;;4.27;;
27796;SDS011;15177;50.844;4.412;2023-03-04T07:46:46;17.63;;;4.90;;
27796;SDS011;15177;50.844;4.412;2023-03-04T07:49:12;19.33;;;4.40;;
27796;SDS011;15177;50.844;4.412;2023-03-04T07:51:38;14.70;;;5.40;;
27796;SDS011;15177;50.844;4.412;2023-03-04T07:54:04;31.07;;;6.97;;
27796;SDS011;15177;50.844;4.412;2023-03-04T07:56:31;20.03;;;7.13;;
27796;SDS011;15177;50.844;4.412;2023-03-04T07:58:58;15.87;;;5.47;;
27796;SDS011;15177;50.844;4.412;2023-03-04T08:01:26;14.03;;;4.87;;
27796;SDS011;15177;50.844;4.412;2023-03-04T08:03:53;10.87;;;5.63;;
27796;SDS011;15177;50.844;4.412;2023-03-04T08:06:20;12.03;;;3.63;;
27796;SDS011;15177;50.844;4.412;2023-03-04T08:08:46;13.53;;;5.63;;
27796;SDS011;15177;50.844;4.412;2023-03-04T08:11:14;17.53;;;3.80;;
27796;SDS011;15177;50.844;4.412;2023-03-04T08:13:42;16.40;;;3.87;;
27796;SDS011;15177;50.844;4.412;2023-03-04T08:16:09;10.13;;;4.17;;
27796;SDS011;15177;50.844;4.412;2023-03-04T08:18:39;10.93;;;4.27;;
27796;SDS011;15177;50.844;4.412;2023-03-04T08:21:10;13.20;;;4.03;;
27796;SDS011;15177;50.844;4.412;2023-03-04T08:23:36;18.20;;;3.13;;
27796;SDS011;15177;50.844;4.412;2023-03-04T08:26:06;13.73;;;2.97;;
27796;SDS011;15177;50.844;4.412;2023-03-04T08:28:34;10.43;;;2.97;;
27796;SDS011;15177;50.844;4.412;2023-03-04T08:31:00;12.57;;;3.10;;
27796;SDS011;15177;50.844;4.412;2023-03-04T08:33:26;13.07;;;3.00;;
27796;SDS011;15177;50.844;4.412;2023-03-04T08:35:51;11.30;;;2.73;;
27796;SDS011;15177;50.844;4.412;2023-03-04T08:38:17;9.70;;;3.00;;
27796;SDS011;15177;50.844;4.412;2023-03-04T08:40:43;10.53;;;2.50;;
27796;SDS011;15177;50.844;4.412;2023-03-04T08:43:08;10.73;;;3.50;;
27796;SDS011;15177;50.844;4.412;2023-03-04T08:45:34;13.37;;;3.30;;
27796;SDS011;15177;50.844;4.412;2023-03-04T08:48:00;11.40;;;3.20;;
27796;SDS011;15177;50.844;4.412;2023-03-04T08:50:25;15.87;;;3.73;;
27796;SDS011;15177;50.844;4.412;2023-03-04T08:52:51;13.57;;;4.13;;
27796;SDS011;15177;50.844;4.412;2023-03-04T08:55:17;8.70;;;3.00;;
27796;SDS011;15177;50.844;4.412;2023-03-04T08:57:44;8.83;;;3.03;;
27796;SDS011;15177;50.844;4.412;2023-03-04T09:00:10;9.83;;;2.97;;
27796;SDS011;15177;50.844;4.412;2023-03-04T09:02:36;11.67;;;3.23;;
27796;SDS011;15177;50.844;4.412;2023-03-04T09:05:02;20.80;;;3.30;;
27796;SDS011;15177;50.844;4.412;2023-03-04T09:07:28;10.83;;;3.37;;
27796;SDS011;15177;50.844;4.412;2023-03-04T09:09:53;14.67;;;3.63;;
27796;SDS011;15177;50.844;4.412;2023-03-04T09:12:19;22.57;;;3.70;;
27796;SDS011;15177;50.844;4.412;2023-03-04T09:14:45;9.40;;;3.20;;
27796;SDS011;15177;50.844;4.412;2023-03-04T09:17:11;14.23;;;3.80;;
27796;SDS011;15177;50.844;4.412;2023-03-04T09:19:36;16.50;;;4.67;;
27796;SDS011;15177;50.844;4.412;2023-03-04T09:22:02;15.80;;;3.80;;
27796;SDS011;15177;50.844;4.412;2023-03-04T09:24:28;13.53;;;4.30;;
27796;SDS011;15177;50.844;4.412;2023-03-04T09:26:53;14.37;;;4.33;;
27796;SDS011;15177;50.844;4.412;2023-03-04T09:29:19;14.37;;;4.87;;
27796;SDS011;15177;50.844;4.412;2023-03-04T09:31:46;12.07;;;4.67;;
27796;SDS011;15177;50.844;4.412;2023-03-04T09:34:12;15.20;;;4.90;;
27796;SDS011;15177;50.844;4.412;2023-03-04T09:36:38;16.23;;;5.33;;
27796;SDS011;15177;50.844;4.412;2023-03-04T09:39:03;11.73;;;5.23;;
27796;SDS011;15177;50.844;4.412;2023-03-04T09:41:43;18.77;;;6.53;;
27796;SDS011;15177;50.844;4.412;2023-03-04T09:44:33;26.73;;;6.07;;
27796;SDS011;15177;50.844;4.412;2023-03-04T09:47:01;10.20;;;5.20;;
27796;SDS011;15177;50.844;4.412;2023-03-04T09:49:30;18.80;;;6.97;;
27796;SDS011;15177;50.844;4.412;2023-03-04T09:52:34;25.63;;;8.50;;
27796;SDS011;15177;50.844;4.412;2023-03-04T09:57:39;12.37;;;6.20;;
27796;SDS011;15177;50.844;4.412;2023-03-04T10:05:16;17.40;;;6.20;;
27796;SDS011;15177;50.844;4.412;2023-03-04T10:07:45;12.20;;;5.83;;
27796;SDS011;15177;50.844;4.412;2023-03-04T10:10:21;17.53;;;6.00;;
27796;SDS011;15177;50.844;4.412;2023-03-04T10:12:51;19.93;;;5.93;;
27796;SDS011;15177;50.844;4.412;2023-03-04T10:17:58;17.17;;;5.77;;
27796;SDS011;15177;50.844;4.412;2023-03-04T10:20:52;21.77;;;5.60;;
27796;SDS011;15177;50.844;4.412;2023-03-04T10:23:23;16.33;;;5.63;;
27796;SDS011;15177;50.844;4.412;2023-03-04T10:25:50;22.47;;;6.03;;
27796;SDS011;15177;50.844;4.412;2023-03-04T10:28:25;14.57;;;5.67;;
27796;SDS011;15177;50.844;4.412;2023-03-04T10:30:56;21.10;;;7.97;;
27796;SDS011;15177;50.844;4.412;2023-03-04T10:33:30;17.77;;;6.93;;
27796;SDS011;15177;50.844;4.412;2023-03-04T10:36:08;15.40;;;6.70;;
27796;SDS011;15177;50.844;4.412;2023-03-04T10:41:24;14.10;;;7.10;;
27796;SDS011;15177;50.844;4.412;2023-03-04T10:46:43;15.53;;;6.83;;
27796;SDS011;15177;50.844;4.412;2023-03-04T10:49:12;21.17;;;6.43;;
27796;SDS011;15177;50.844;4.412;2023-03-04T10:52:01;15.07;;;6.57;;
27796;SDS011;15177;50.844;4.412;2023-03-04T10:54:28;16.17;;;5.73;;
27796;SDS011;15177;50.844;4.412;2023-03-04T10:56:59;13.27;;;5.90;;
27796;SDS011;15177;50.844;4.412;2023-03-04T10:59:45;15.87;;;5.47;;
27796;SDS011;15177;50.844;4.412;2023-03-04T11:02:30;15.93;;;5.37;;
27796;SDS011;15177;50.844;4.412;2023-03-04T11:07:47;12.60;;;4.80;;
27796;SDS011;15177;50.844;4.412;2023-03-04T11:10:24;15.63;;;5.77;;
27796;SDS011;15177;50.844;4.412;2023-03-04T11:13:11;13.07;;;5.40;;
27796;SDS011;15177;50.844;4.412;2023-03-04T11:16:23;14.00;;;5.20;;
27796;SDS011;15177;50.844;4.412;2023-03-04T11:18:47;12.43;;;4.30;;
27796;SDS011;15177;50.844;4.412;2023-03-04T11:21:18;10.87;;;4.50;;
27796;SDS011;15177;50.844;4.412;2023-03-04T11:23:47;10.13;;;4.60;;
27796;SDS011;15177;50.844;4.412;2023-03-04T11:26:20;13.53;;;5.03;;
27796;SDS011;15177;50.844;4.412;2023-03-04T11:29:01;19.83;;;5.73;;
27796;SDS011;15177;50.844;4.412;2023-03-04T11:32:23;11.43;;;5.23;;
27796;SDS011;15177;50.844;4.412;2023-03-04T11:34:54;23.17;;;6.30;;
27796;SDS011;15177;50.844;4.412;2023-03-04T11:37:34;13.60;;;5.40;;
27796;SDS011;15177;50.844;4.412;2023-03-04T11:40:02;10.47;;;4.70;;
27796;SDS011;15177;50.844;4.412;2023-03-04T11:42:36;12.03;;;5.63;;
27796;SDS011;15177;50.844;4.412;2023-03-04T11:45:15;14.97;;;5.17;;
27796;SDS011;15177;50.844;4.412;2023-03-04T11:50:53;13.00;;;5.20;;
27796;SDS011;15177;50.844;4.412;2023-03-04T11:53:28;10.27;;;5.13;;
27796;SDS011;15177;50.844;4.412;2023-03-04T12:10:52;11.43;;;5.47;;
27796;SDS011;15177;50.844;4.412;2023-03-04T12:19:45;12.87;;;7.43;;
27796;SDS011;15177;50.844;4.412;2023-03-04T12:27:47;15.77;;;5.57;;
27796;SDS011;15177;50.844;4.412;2023-03-04T12:44:25;10.33;;;5.07;;
27796;SDS011;15177;50.844;4.412;2023-03-04T12:55:01;9.30;;;4.30;;
27796;SDS011;15177;50.844;4.412;2023-03-04T12:57:39;12.57;;;3.83;;
27796;SDS011;15177;50.844;4.412;2023-03-04T13:03:05;10.00;;;3.70;;
27796;SDS011;15177;50.844;4.412;2023-03-04T13:14:04;8.93;;;3.63;;
27796;SDS011;15177;50.844;4.412;2023-03-04T13:16:31;10.60;;;3.07;;
27796;SDS011;15177;50.844;4.412;2023-03-04T13:28:38;8.30;;;3.27;;
27796;SDS011;15177;50.844;4.412;2023-03-04T13:38:21;8.57;;;3.13;;
27796;SDS011;15177;50.844;4.412;2023-03-04T13:43:44;4.53;;;3.03;;
27796;SDS011;15177;50.844;4.412;2023-03-04T13:51:18;5.70;;;2.53;;
27796;SDS011;15177;50.844;4.412;2023-03-04T13:56:31;13.87;;;3.93;;
27796;SDS011;15177;50.844;4.412;2023-03-04T14:04:27;8.07;;;2.67;;
27796;SDS011;15177;50.844;4.412;2023-03-04T14:06:53;6.10;;;2.60;;
27796;SDS011;15177;50.844;4.412;2023-03-04T14:09:23;8.50;;;3.50;;
27796;SDS011;15177;50.844;4.412;2023-03-04T14:11:54;6.93;;;2.83;;
27796;SDS011;15177;50.844;4.412;2023-03-04T14:14:26;4.10;;;2.80;;
27796;SDS011;15177;50.844;4.412;2023-03-04T14:16:58;7.40;;;2.77;;
27796;SDS011;15177;50.844;4.412;2023-03-04T14:19:32;7.03;;;3.20;;
27796;SDS011;15177;50.844;4.412;2023-03-04T14:22:02;8.73;;;3.10;;
27796;SDS011;15177;50.844;4.412;2023-03-04T14:27:43;5.60;;;3.03;;
27796;SDS011;15177;50.844;4.412;2023-03-04T14:30:28;6.97;;;2.73;;
27796;SDS011;15177;50.844;4.412;2023-03-04T14:32:56;5.03;;;2.43;;
27796;SDS011;15177;50.844;4.412;2023-03-04T14:35:25;3.70;;;2.90;;
27796;SDS011;15177;50.844;4.412;2023-03-04T14:40:48;6.20;;;2.10;;
27796;SDS011;15177;50.844;4.412;2023-03-04T14:43:17;6.07;;;2.33;;
27796;SDS011;15177;50.844;4.412;2023-03-04T14:45:46;6.17;;;2.47;;
27796;SDS011;15177;50.844;4.412;2023-03-04T14:48:19;4.90;;;2.20;;
27796;SDS011;15177;50.844;4.412;2023-03-04T14:50:58;5.73;;;2.43;;
27796;SDS011;15177;50.844;4.412;2023-03-04T14:53:30;6.33;;;2.20;;
27796;SDS011;15177;50.844;4.412;2023-03-04T14:55:58;8.73;;;2.40;;
27796;SDS011;15177;50.844;4.412;2023-03-04T14:58:31;3.13;;;2.33;;
27796;SDS011;15177;50.844;4.412;2023-03-04T15:01:13;6.67;;;2.37;;
27796;SDS011;15177;50.844;4.412;2023-03-04T15:03:55;3.43;;;2.07;;
27796;SDS011;15177;50.844;4.412;2023-03-04T15:06:25;3.20;;;2.37;;
27796;SDS011;15177;50.844;4.412;2023-03-04T15:11:25;6.30;;;2.60;;
27796;SDS011;15177;50.844;4.412;2023-03-04T15:13:54;8.73;;;2.97;;
27796;SDS011;15177;50.844;4.412;2023-03-04T15:16:22;8.27;;;3.10;;
27796;SDS011;15177;50.844;4.412;2023-03-04T15:18:56;7.83;;;2.93;;
27796;SDS011;15177;50.844;4.412;2023-03-04T15:21:32;4.23;;;2.60;;
27796;SDS011;15177;50.844;4.412;2023-03-04T15:24:02;4.33;;;3.10;;
27796;SDS011;15177;50.844;4.412;2023-03-04T15:26:33;6.60;;;2.37;;
27796;SDS011;15177;50.844;4.412;2023-03-04T15:29:13;6.37;;;2.90;;
27796;SDS011;15177;50.844;4.412;2023-03-04T15:31:40;5.43;;;2.60;;
27796;SDS011;15177;50.844;4.412;2023-03-04T15:34:14;13.23;;;3.33;;
27796;SDS011;15177;50.844;4.412;2023-03-04T15:36:45;9.40;;;3.90;;
27796;SDS011;15177;50.844;4.412;2023-03-04T15:39:14;7.30;;;3.47;;
27796;SDS011;15177;50.844;4.412;2023-03-04T15:41:41;5.13;;;2.30;;
27796;SDS011;15177;50.844;4.412;2023-03-04T15:44:08;5.53;;;2.87;;
27796;SDS011;15177;50.844;4.412;2023-03-04T15:46:36;4.83;;;2.73;;
27796;SDS011;15177;50.844;4.412;2023-03-04T15:49:03;10.63;;;3.50;;
27796;SDS011;15177;50.844;4.412;2023-03-04T15:51:30;6.90;;;2.63;;
27796;SDS011;15177;50.844;4.412;2023-03-04T15:53:56;13.87;;;4.60;;
27796;SDS011;15177;50.844;4.412;2023-03-04T15:56:32;7.07;;;3.03;;
27796;SDS011;15177;50.844;4.412;2023-03-04T15:59:02;4.07;;;1.93;;
27796;SDS011;15177;50.844;4.412;2023-03-04T16:01:36;5.23;;;2.27;;
27796;SDS011;15177;50.844;4.412;2023-03-04T16:04:02;9.57;;;2.20;;
27796;SDS011;15177;50.844;4.412;2023-03-04T16:06:28;6.10;;;2.10;;
27796;SDS011;15177;50.844;4.412;2023-03-04T16:08:55;7.20;;;2.23;;
27796;SDS011;15177;50.844;4.412;2023-03-04T16:11:23;10.53;;;2.37;;
27796;SDS011;15177;50.844;4.412;2023-03-04T16:13:50;8.50;;;2.13;;
27796;SDS011;15177;50.844;4.412;2023-03-04T16:16:17;4.33;;;2.00;;
27796;SDS011;15177;50.844;4.412;2023-03-04T16:18:42;6.90;;;1.83;;
27796;SDS011;15177;50.844;4.412;2023-03-04T16:21:10;4.97;;;2.40;;
27796;SDS011;15177;50.844;4.412;2023-03-04T16:23:39;7.30;;;2.00;;
27796;SDS011;15177;50.844;4.412;2023-03-04T16:26:13;6.03;;;2.20;;
27796;SDS011;15177;50.844;4.412;2023-03-04T16:28:41;5.43;;;2.30;;
27796;SDS011;15177;50.844;4.412;2023-03-04T16:31:07;6.73;;;2.73;;
27796;SDS011;15177;50.844;4.412;2023-03-04T16:33:34;6.40;;;2.17;;
27796;SDS011;15177;50.844;4.412;2023-03-04T16:36:00;6.37;;;2.50;;
27796;SDS011;15177;50.844;4.412;2023-03-04T16:38:29;7.87;;;2.47;;
27796;SDS011;15177;50.844;4.412;2023-03-04T16:40:56;7.73;;;2.73;;
27796;SDS011;15177;50.844;4.412;2023-03-04T16:43:23;7.90;;;2.50;;
27796;SDS011;15177;50.844;4.412;2023-03-04T16:45:49;5.93;;;2.67;;
27796;SDS011;15177;50.844;4.412;2023-03-04T16:48:15;9.17;;;2.60;;
27796;SDS011;15177;50.844;4.412;2023-03-04T16:50:41;7.60;;;2.30;;
27796;SDS011;15177;50.844;4.412;2023-03-04T16:53:16;5.03;;;2.40;;
27796;SDS011;15177;50.844;4.412;2023-03-04T16:56:12;2.70;;;1.87;;